You are not logged in, Click here to log in
內塔吉·蘇巴斯·錢德拉·鮑斯國際機場CCU / VECC 印度共和國西孟加拉邦首府加爾各答近郊德姆德姆的一座國際機場,距加爾各答市中心17公里,原名德姆德姆機
ICAO: VECC Country: 印度共和國西孟加拉邦首府加爾各答近郊德姆德姆的一座國際機場,距加爾各答市中心17公里,原名德姆德姆機
Latitude: 22.6547 Longitude: 88.4467
Total Arrivals: 4 Total Departures: 6
Latest Arrival: FD120A (VTBD-VECC) Nick. Liu Latest Departure: 6E318 (VECC-VABB) Nick. Liu
Scenery:
METAR : VECC 110500Z 20009KT 3800 HZ SCT020 BKN100 32/30 Q1001 NOSIG

內塔吉·蘇巴斯·錢德拉·鮑斯國際機場CCU